createdAt,value
2018-04-08T00:00:21.761Z,96706.80
2018-04-08T00:02:49.312Z,96711.09
2018-04-08T00:05:16.835Z,96705.63
2018-04-08T00:07:44.821Z,96698.37
2018-04-08T00:10:12.347Z,96698.56
2018-04-08T00:12:39.906Z,96694.91
2018-04-08T00:15:07.457Z,96695.49
2018-04-08T00:17:34.973Z,96693.62
2018-04-08T00:20:02.726Z,96692.28
2018-04-08T00:22:30.267Z,96691.11
2018-04-08T00:24:58.597Z,96687.88
2018-04-08T00:27:26.154Z,96694.51
2018-04-08T00:29:53.802Z,96689.55
2018-04-08T00:32:21.550Z,96693.84
2018-04-08T00:34:49.189Z,96697.73
2018-04-08T00:37:16.826Z,96691.94
2018-04-08T00:39:44.377Z,96691.20
2018-04-08T00:42:11.984Z,96691.48
2018-04-08T00:44:39.574Z,96688.05
2018-04-08T00:47:07.093Z,96680.94
2018-04-08T00:49:34.653Z,96680.17
2018-04-08T00:52:02.202Z,96677.10
2018-04-08T00:54:30.556Z,96675.27
2018-04-08T00:56:58.114Z,96669.53
2018-04-08T00:59:25.646Z,96667.49
2018-04-08T01:01:53.273Z,96663.40
2018-04-08T01:04:20.854Z,96660.51
2018-04-08T01:06:48.376Z,96656.03
2018-04-08T01:09:15.926Z,96654.28
2018-04-08T01:11:43.441Z,96650.94
2018-04-08T01:14:11.186Z,96645.73
2018-04-08T01:16:38.968Z,96645.11
2018-04-08T01:19:06.498Z,96645.82
2018-04-08T01:21:34.042Z,96647.05
2018-04-08T01:24:01.576Z,96640.75
2018-04-08T01:26:29.293Z,96639.78
2018-04-08T01:28:56.810Z,96639.02
2018-04-08T01:31:24.329Z,96639.52
2018-04-08T01:33:51.881Z,96642.17
2018-04-08T01:36:19.441Z,96639.09
2018-04-08T01:38:47.184Z,96645.08
2018-04-08T01:41:16.938Z,96642.25
2018-04-08T01:43:44.473Z,96633.28
2018-04-08T01:46:12.029Z,96632.53
2018-04-08T01:48:39.571Z,96632.03
2018-04-08T01:51:07.160Z,96629.35
2018-04-08T01:53:34.680Z,96633.72
2018-04-08T01:56:02.220Z,96637.81
2018-04-08T01:58:29.774Z,96626.47
2018-04-08T02:00:57.303Z,96629.68
2018-04-08T02:03:25.154Z,96625.41
2018-04-08T02:05:52.678Z,96627.98
2018-04-08T02:08:20.199Z,96623.46
2018-04-08T02:10:47.745Z,96625.61
2018-04-08T02:13:15.286Z,96625.15
2018-04-08T02:15:42.858Z,96621.26
2018-04-08T02:18:10.376Z,96619.05
2018-04-08T02:20:37.907Z,96616.87
2018-04-08T02:23:05.454Z,96613.98
2018-04-08T02:25:32.973Z,96615.02
2018-04-08T02:28:00.556Z,96606.30
2018-04-08T02:30:28.087Z,96611.36
2018-04-08T02:32:55.606Z,96605.91
2018-04-08T02:35:23.158Z,96607.53
2018-04-08T02:37:50.675Z,96605.55
2018-04-08T02:40:18.351Z,96603.79
2018-04-08T02:42:45.965Z,96606.26
2018-04-08T02:45:13.482Z,96604.08
2018-04-08T02:47:41.037Z,96606.41
2018-04-08T02:50:08.558Z,96603.94
2018-04-08T02:52:36.652Z,96608.68
2018-04-08T02:55:04.177Z,96611.53
2018-04-08T02:57:32.087Z,96609.70
2018-04-08T02:59:59.967Z,96608.85
2018-04-08T03:02:27.503Z,96600.55
2018-04-08T03:04:55.057Z,96606.15
2018-04-08T03:07:22.591Z,96607.25
2018-04-08T03:09:50.106Z,96608.95
2018-04-08T03:12:17.686Z,96609.72
2018-04-08T03:14:45.211Z,96610.25
2018-04-08T03:17:12.941Z,96612.20
2018-04-08T03:19:40.469Z,96613.48
2018-04-08T03:22:07.993Z,96610.97
2018-04-08T03:24:35.541Z,96611.47
2018-04-08T03:27:03.065Z,96608.58
2018-04-08T03:29:30.832Z,96606.69
2018-04-08T03:31:58.353Z,96598.56
2018-04-08T03:34:26.158Z,96599.86
2018-04-08T03:36:53.706Z,96602.25
2018-04-08T03:39:21.225Z,96593.16
2018-04-08T03:41:49.057Z,96595.14
2018-04-08T03:44:16.582Z,96595.33
2018-04-08T03:46:44.105Z,96590.36
2018-04-08T03:49:11.650Z,96585.65
2018-04-08T03:51:39.178Z,96588.02
2018-04-08T03:54:07.723Z,96582.48
2018-04-08T03:56:35.244Z,96583.39
2018-04-08T03:59:02.765Z,96581.50
2018-04-08T04:01:30.305Z,96578.31
2018-04-08T04:03:57.827Z,96580.34
2018-04-08T04:06:25.526Z,96579.94
2018-04-08T04:08:53.052Z,96575.48
2018-04-08T04:11:20.577Z,96572.31
2018-04-08T04:13:48.117Z,96577.15
2018-04-08T04:16:15.635Z,96573.91
2018-04-08T04:18:54.883Z,96569.05
2018-04-08T04:21:34.305Z,96570.23
2018-04-08T04:24:13.710Z,96571.63
2018-04-08T04:26:41.234Z,96571.41
2018-04-08T04:29:08.782Z,96566.92
2018-04-08T04:31:36.300Z,96568.19
2018-04-08T04:34:04.043Z,96564.81
2018-04-08T04:36:31.569Z,96563.52
2018-04-08T04:38:59.256Z,96561.45
2018-04-08T04:41:26.809Z,96561.45
2018-04-08T04:43:54.338Z,96560.09
2018-04-08T04:46:21.904Z,96559.91
2018-04-08T04:48:49.428Z,96560.62
2018-04-08T04:51:17.004Z,96567.29
2018-04-08T04:53:44.530Z,96561.43
2018-04-08T04:56:12.326Z,96557.74
2018-04-08T04:58:40.368Z,96566.38
2018-04-08T05:01:07.889Z,96565.13
2018-04-08T05:03:35.430Z,96564.51
2018-04-08T05:06:02.977Z,96571.14
2018-04-08T05:08:30.492Z,96567.73
2018-04-08T05:10:58.049Z,96573.36
2018-04-08T05:13:25.579Z,96562.64
2018-04-08T05:15:53.096Z,96562.33
2018-04-08T05:18:21.557Z,96567.60
2018-04-08T05:20:49.105Z,96570.27
2018-04-08T05:23:16.658Z,96564.81
2018-04-08T05:25:44.185Z,96573.66
2018-04-08T05:28:11.712Z,96575.37
2018-04-08T05:30:39.258Z,96572.59
2018-04-08T05:33:06.813Z,96572.69
2018-04-08T05:35:34.462Z,96579.52
2018-04-08T05:38:01.983Z,96575.09
2018-04-08T05:40:29.523Z,96574.11
2018-04-08T05:42:57.073Z,96573.16
2018-04-08T05:45:24.601Z,96576.78
2018-04-08T05:47:52.258Z,96579.52
2018-04-08T05:50:19.809Z,96580.13
2018-04-08T05:52:47.331Z,96580.94
2018-04-08T05:55:14.895Z,96592.89
2018-04-08T05:57:42.414Z,96588.16
2018-04-08T06:00:10.141Z,96589.86
2018-04-08T06:02:37.671Z,96588.37
2018-04-08T06:05:05.224Z,96585.77
2018-04-08T06:07:33.653Z,96587.05
2018-04-08T06:10:01.172Z,96590.25
2018-04-08T06:12:28.862Z,96590.39
2018-04-08T06:14:56.396Z,96588.89
2018-04-08T06:17:23.923Z,96582.19
2018-04-08T06:19:51.478Z,96584.48
2018-04-08T06:22:18.995Z,96584.05
2018-04-08T06:24:46.842Z,96593.43
2018-04-08T06:27:14.384Z,96598.18
2018-04-08T06:29:41.913Z,96588.63
2018-04-08T06:32:09.572Z,96597.35
2018-04-08T06:34:37.182Z,96590.81
2018-04-08T06:37:04.857Z,96594.27
2018-04-08T06:39:32.400Z,96583.23
2018-04-08T06:41:59.962Z,96587.02
2018-04-08T06:44:27.506Z,96587.55
2018-04-08T06:46:55.037Z,96585.38
2018-04-08T06:49:22.776Z,96577.57
2018-04-08T06:51:50.293Z,96580.35
2018-04-08T06:54:18.625Z,96578.69
2018-04-08T06:56:46.212Z,96582.75
2018-04-08T06:59:13.834Z,96576.92
2018-04-08T07:01:42.142Z,96576.08
2018-04-08T07:04:09.990Z,96582.41
2018-04-08T07:06:38.300Z,96579.88
2018-04-08T07:09:05.862Z,96583.50
2018-04-08T07:11:33.424Z,96586.37
2018-04-08T07:14:01.507Z,96591.13
2018-04-08T07:16:29.030Z,96585.76
2018-04-08T07:18:56.566Z,96589.23
2018-04-08T07:21:24.323Z,96584.31
2018-04-08T07:23:51.875Z,96587.48
2018-04-08T07:26:19.461Z,96585.02
2018-04-08T07:28:46.993Z,96581.66
2018-04-08T07:31:14.516Z,96579.90
2018-04-08T07:33:42.073Z,96584.84
2018-04-08T07:36:09.663Z,96582.86
2018-04-08T07:38:37.285Z,96580.88
2018-04-08T07:41:06.960Z,96582.36
2018-04-08T07:43:34.535Z,96584.67
2018-04-08T07:46:02.274Z,96583.14
2018-04-08T07:48:29.946Z,96584.71
2018-04-08T07:50:57.669Z,96577.95
2018-04-08T07:53:25.199Z,96573.63
2018-04-08T07:55:52.827Z,96574.55
2018-04-08T07:58:20.441Z,96565.16
2018-04-08T08:00:49.790Z,96563.53
2018-04-08T08:03:17.451Z,96568.43
2018-04-08T08:05:45.112Z,96566.13
2018-04-08T08:08:12.688Z,96563.59
2018-04-08T08:10:40.805Z,96569.92
2018-04-08T08:13:08.499Z,96566.98
2018-04-08T08:15:36.337Z,96567.08
2018-04-08T08:18:04.035Z,96564.66
2018-04-08T08:20:31.800Z,96558.89
2018-04-08T08:22:59.445Z,96556.41
2018-04-08T08:25:27.028Z,96561.00
2018-04-08T08:27:54.770Z,96554.09
2018-04-08T08:30:22.429Z,96564.94
2018-04-08T08:32:50.078Z,96562.14
2018-04-08T08:35:17.629Z,96561.50
2018-04-08T08:37:45.150Z,96560.03
2018-04-08T08:40:13.094Z,96562.64
2018-04-08T08:42:40.642Z,96562.95
2018-04-08T08:45:08.314Z,96553.06
2018-04-08T08:47:35.897Z,96558.33
2018-04-08T08:50:03.429Z,96556.91
2018-04-08T08:52:31.473Z,96555.59
2018-04-08T08:54:59.055Z,96552.78
2018-04-08T08:57:26.558Z,96550.03
2018-04-08T08:59:54.112Z,96555.69
2018-04-08T09:02:21.640Z,96551.68
2018-04-08T09:04:49.576Z,96551.41
2018-04-08T09:07:17.144Z,96545.76
2018-04-08T09:09:44.662Z,96541.39
2018-04-08T09:12:12.268Z,96536.55
2018-04-08T09:14:39.805Z,96533.90
2018-04-08T09:17:07.420Z,96537.75
2018-04-08T09:19:49.821Z,96533.95
2018-04-08T09:22:22.514Z,96536.77
2018-04-08T09:24:50.608Z,96531.02
2018-04-08T09:27:18.145Z,96530.08
2018-04-08T09:29:45.702Z,96535.36
2018-04-08T09:32:13.217Z,96535.36
2018-04-08T09:34:40.974Z,96537.92
2018-04-08T09:37:08.614Z,96531.66
2018-04-08T09:39:36.265Z,96539.11
2018-04-08T09:42:03.845Z,96534.74
2018-04-08T09:44:31.376Z,96533.66
2018-04-08T09:46:59.318Z,96537.48
2018-04-08T09:49:26.963Z,96532.55
2018-04-08T09:51:54.585Z,96523.30
2018-04-08T09:54:22.149Z,96527.70
2018-04-08T09:56:49.767Z,96526.72
2018-04-08T09:59:17.848Z,96526.59
2018-04-08T10:01:51.247Z,96527.70
2018-04-08T10:04:18.989Z,96528.16
2018-04-08T10:06:46.752Z,96528.00
2018-04-08T10:09:15.140Z,96519.57
2018-04-08T10:11:42.726Z,96524.02
2018-04-08T10:14:10.439Z,96515.24
2018-04-08T10:16:38.586Z,96520.18
2018-04-08T10:19:06.447Z,96511.20
2018-04-08T10:21:34.159Z,96513.17
2018-04-08T10:24:02.022Z,96509.57
2018-04-08T10:26:29.889Z,96511.86
2018-04-08T10:28:58.064Z,96502.91
2018-04-08T10:31:25.826Z,96501.92
2018-04-08T10:33:53.594Z,96496.36
2018-04-08T10:36:21.343Z,96505.64
2018-04-08T10:38:49.221Z,96498.38
2018-04-08T10:41:16.858Z,96504.21
2018-04-08T10:43:44.801Z,96493.47
2018-04-08T10:46:12.438Z,96494.78
2018-04-08T10:48:40.996Z,96499.95
2018-04-08T10:51:08.676Z,96497.53
2018-04-08T10:53:36.420Z,96495.50
2018-04-08T10:56:04.453Z,96495.88
2018-04-08T10:58:32.139Z,96492.42
2018-04-08T11:00:59.711Z,96486.50
2018-04-08T11:03:27.464Z,96490.83
2018-04-08T11:05:55.351Z,96485.30
2018-04-08T11:08:23.011Z,96484.38
2018-04-08T11:10:50.851Z,96488.92
2018-04-08T11:13:18.738Z,96488.52
2018-04-08T11:15:46.508Z,96486.36
2018-04-08T11:18:14.166Z,96478.64
2018-04-08T11:20:41.826Z,96480.22
2018-04-08T11:23:09.493Z,96475.98
2018-04-08T11:25:37.117Z,96479.66
2018-04-08T11:28:04.698Z,96471.64
2018-04-08T11:30:32.575Z,96470.41
2018-04-08T11:33:00.445Z,96468.30
2018-04-08T11:35:27.998Z,96470.08
2018-04-08T11:37:55.764Z,96464.80
2018-04-08T11:40:23.476Z,96472.30
2018-04-08T11:42:51.183Z,96462.05
2018-04-08T11:45:18.886Z,96463.80
2018-04-08T11:47:46.609Z,96456.14
2018-04-08T11:50:14.334Z,96461.65
2018-04-08T11:52:41.981Z,96449.84
2018-04-08T11:55:09.683Z,96453.19
2018-04-08T11:57:37.356Z,96453.88
2018-04-08T12:00:05.105Z,96456.11
2018-04-08T12:02:32.767Z,96446.67
2018-04-08T12:05:00.370Z,96445.48
2018-04-08T12:07:28.112Z,96444.84
2018-04-08T12:09:55.662Z,96437.52
2018-04-08T12:12:23.380Z,96441.30
2018-04-08T12:14:51.510Z,96436.91
2018-04-08T12:17:20.007Z,96430.73
2018-04-08T12:19:47.755Z,96436.53
2018-04-08T12:22:15.511Z,96424.84
2018-04-08T12:24:43.532Z,96425.45
2018-04-08T12:27:14.933Z,96424.00
2018-04-08T12:29:42.810Z,96426.13
2018-04-08T12:32:10.776Z,96415.66
2018-04-08T12:34:38.640Z,96416.33
2018-04-08T12:37:06.609Z,96415.12
2018-04-08T12:39:34.579Z,96406.70
2018-04-08T12:42:02.343Z,96405.56
2018-04-08T12:44:30.005Z,96400.99
2018-04-08T12:46:57.727Z,96398.36
2018-04-08T12:49:25.532Z,96392.31
2018-04-08T12:51:53.305Z,96392.11
2018-04-08T12:54:21.045Z,96387.83
2018-04-08T12:56:49.543Z,96384.35
2018-04-08T12:59:17.187Z,96382.56
2018-04-08T13:01:44.737Z,96371.77
2018-04-08T13:04:12.331Z,96372.72
2018-04-08T13:06:39.936Z,96367.50
2018-04-08T13:09:08.798Z,96361.91
2018-04-08T13:11:36.412Z,96361.41
2018-04-08T13:14:04.270Z,96356.30
2018-04-08T13:16:31.916Z,96351.33
2018-04-08T13:18:59.727Z,96344.63
2018-04-08T13:21:27.665Z,96344.78
2018-04-08T13:23:55.336Z,96335.70
2018-04-08T13:26:23.178Z,96344.14
2018-04-08T13:28:50.885Z,96335.56
2018-04-08T13:31:18.856Z,96338.34
2018-04-08T13:33:46.721Z,96331.16
2018-04-08T13:36:14.294Z,96330.74
2018-04-08T13:38:41.988Z,96332.16
2018-04-08T13:41:09.606Z,96329.92
2018-04-08T13:43:37.678Z,96317.88
2018-04-08T13:46:05.363Z,96318.11
2018-04-08T13:48:32.970Z,96319.59
2018-04-08T13:51:00.740Z,96311.20
2018-04-08T13:53:28.357Z,96305.16
2018-04-08T13:55:56.098Z,96301.34
2018-04-08T13:58:23.792Z,96307.66
2018-04-08T14:00:51.546Z,96307.66
2018-04-08T14:03:19.174Z,96304.05
2018-04-08T14:05:46.877Z,96305.49
2018-04-08T14:08:15.121Z,96300.02
2018-04-08T14:10:42.793Z,96298.69
2018-04-08T14:13:10.498Z,96295.02
2018-04-08T14:15:38.182Z,96292.48
2018-04-08T14:18:05.903Z,96297.91
2018-04-08T14:20:33.744Z,96290.33
2018-04-08T14:23:01.433Z,96293.17
2018-04-08T14:25:29.029Z,96292.11
2018-04-08T14:27:56.699Z,96281.20
2018-04-08T14:30:24.419Z,96292.73
2018-04-08T14:32:52.230Z,96284.28
2018-04-08T14:35:19.909Z,96281.22
2018-04-08T14:37:48.188Z,96277.30
2018-04-08T14:40:16.515Z,96279.20
2018-04-08T14:42:44.233Z,96280.95
2018-04-08T14:45:12.271Z,96276.31
2018-04-08T14:47:40.157Z,96278.11
2018-04-08T14:50:07.920Z,96273.31
2018-04-08T14:52:35.553Z,96269.14
2018-04-08T14:55:03.259Z,96270.62
2018-04-08T14:57:30.943Z,96262.96
2018-04-08T14:59:58.468Z,96263.97
2018-04-08T15:02:26.134Z,96252.39
2018-04-08T15:04:53.905Z,96248.88
2018-04-08T15:07:21.516Z,96247.08
2018-04-08T15:09:49.238Z,96245.87
2018-04-08T15:12:16.981Z,96242.97
2018-04-08T15:14:44.845Z,96245.30
2018-04-08T15:17:12.819Z,96239.80
2018-04-08T15:19:41.147Z,96236.70
2018-04-08T15:22:11.488Z,96238.64
2018-04-08T15:24:39.013Z,96238.27
2018-04-08T15:27:06.948Z,96234.20
2018-04-08T15:29:34.809Z,96238.16
2018-04-08T15:32:02.445Z,96234.34
2018-04-08T15:34:30.646Z,96242.04
2018-04-08T15:36:58.655Z,96238.70
2018-04-08T15:39:27.863Z,96240.83
2018-04-08T15:41:55.600Z,96228.63
2018-04-08T15:44:23.241Z,96227.13
2018-04-08T15:46:50.994Z,96235.59
2018-04-08T15:49:19.165Z,96238.28
2018-04-08T15:51:46.787Z,96230.98
2018-04-08T15:54:16.222Z,96232.88
2018-04-08T15:56:44.078Z,96229.88
2018-04-08T15:59:12.080Z,96232.98
2018-04-08T16:01:39.964Z,96232.86
2018-04-08T16:04:07.565Z,96233.20
2018-04-08T16:06:35.473Z,96232.83
2018-04-08T16:09:03.081Z,96238.27
2018-04-08T16:11:30.999Z,96242.73
2018-04-08T16:13:58.660Z,96246.75
2018-04-08T16:16:26.738Z,96248.81
2018-04-08T16:18:54.792Z,96248.25
2018-04-08T16:21:22.362Z,96248.36
2018-04-08T16:23:50.273Z,96248.60
2018-04-08T16:26:18.203Z,96253.84
2018-04-08T16:28:46.168Z,96257.27
2018-04-08T16:31:14.342Z,96247.54
2018-04-08T16:33:42.196Z,96253.34
2018-04-08T16:36:10.079Z,96252.83
2018-04-08T16:38:37.951Z,96252.52
2018-04-08T16:41:05.719Z,96253.82
2018-04-08T16:43:35.263Z,96258.61
2018-04-08T16:46:03.097Z,96255.27
2018-04-08T16:48:30.902Z,96253.09
2018-04-08T16:50:58.488Z,96257.09
2018-04-08T16:53:26.507Z,96253.58
2018-04-08T16:55:54.542Z,96251.19
2018-04-08T16:58:23.238Z,96250.76
2018-04-08T17:00:51.213Z,96245.45
2018-04-08T17:03:19.472Z,96250.56
2018-04-08T17:05:47.547Z,96256.94
2018-04-08T17:08:16.742Z,96258.61
2018-04-08T17:10:44.630Z,96251.98
2018-04-08T17:13:12.373Z,96261.75
2018-04-08T17:15:40.341Z,96257.45
2018-04-08T17:18:08.207Z,96263.43
2018-04-08T17:20:36.141Z,96262.89
2018-04-08T17:23:04.042Z,96265.25
2018-04-08T17:25:31.757Z,96263.96
2018-04-08T17:27:59.571Z,96266.95
2018-04-08T17:30:27.431Z,96260.86
2018-04-08T17:32:55.511Z,96261.58
2018-04-08T17:35:23.274Z,96262.92
2018-04-08T17:37:51.181Z,96260.17
2018-04-08T17:40:19.415Z,96262.87
2018-04-08T17:42:47.285Z,96268.40
2018-04-08T17:45:15.730Z,96267.84
2018-04-08T17:47:43.733Z,96263.20
2018-04-08T17:50:11.599Z,96268.05
2018-04-08T17:52:39.574Z,96267.43
2018-04-08T17:55:07.436Z,96267.74
2018-04-08T17:57:35.471Z,96275.03
2018-04-08T18:00:03.372Z,96282.98
2018-04-08T18:02:33.289Z,96278.23
2018-04-08T18:05:01.439Z,96281.82
2018-04-08T18:07:29.327Z,96279.38
2018-04-08T18:09:57.584Z,96280.42
2018-04-08T18:12:25.862Z,96281.23
2018-04-08T18:14:53.849Z,96281.69
2018-04-08T18:17:22.683Z,96283.68
2018-04-08T18:19:50.608Z,96287.30
2018-04-08T18:22:18.984Z,96290.66
2018-04-08T18:24:46.850Z,96289.67
2018-04-08T18:27:14.820Z,96295.72
2018-04-08T18:29:42.607Z,96297.96
2018-04-08T18:32:10.866Z,96305.65
2018-04-08T18:34:38.829Z,96300.22
2018-04-08T18:37:06.602Z,96304.84
2018-04-08T18:39:34.767Z,96297.79
2018-04-08T18:42:02.852Z,96302.09
2018-04-08T18:44:30.809Z,96307.03
2018-04-08T18:46:58.778Z,96313.05
2018-04-08T18:49:26.645Z,96317.28
2018-04-08T18:51:54.716Z,96316.62
2018-04-08T18:54:22.611Z,96318.62
2018-04-08T18:56:50.447Z,96311.45
2018-04-08T18:59:18.846Z,96319.75
2018-04-08T19:01:46.707Z,96314.97
2018-04-08T19:04:14.936Z,96312.64
2018-04-08T19:06:42.939Z,96311.16
2018-04-08T19:09:10.907Z,96320.73
2018-04-08T19:11:39.057Z,96327.61
2018-04-08T19:14:07.052Z,96322.45
2018-04-08T19:16:34.918Z,96320.98
2018-04-08T19:19:02.884Z,96321.55
2018-04-08T19:21:31.162Z,96323.00
2018-04-08T19:23:59.962Z,96326.91
2018-04-08T19:26:29.254Z,96323.88
2018-04-08T19:28:57.115Z,96323.55
2018-04-08T19:31:25.085Z,96315.75
2018-04-08T19:33:54.184Z,96319.05
2018-04-08T19:36:22.560Z,96315.39
2018-04-08T19:38:50.597Z,96316.98
2018-04-08T19:41:18.433Z,96315.19
2018-04-08T19:43:46.429Z,96321.44
2018-04-08T19:46:14.541Z,96321.94
2018-04-08T19:48:43.986Z,96317.32
2018-04-08T19:51:12.004Z,96317.16
2018-04-08T19:53:39.806Z,96318.19
2018-04-08T19:56:07.744Z,96320.06
2018-04-08T19:58:36.515Z,96318.64
2018-04-08T20:01:05.424Z,96324.03
2018-04-08T20:03:33.330Z,96326.70
2018-04-08T20:06:01.232Z,96324.73
2018-04-08T20:08:29.397Z,96319.14
2018-04-08T20:10:57.268Z,96322.99
2018-04-08T20:13:25.907Z,96324.13
2018-04-08T20:15:53.751Z,96328.64
2018-04-08T20:18:21.630Z,96323.30
2018-04-08T20:23:37.220Z,96320.81
2018-04-08T20:26:05.593Z,96323.22
2018-04-08T20:28:34.177Z,96327.15
2018-04-08T20:31:02.045Z,96320.20
2018-04-08T20:33:29.967Z,96321.92
2018-04-08T20:35:57.834Z,96321.45
2018-04-08T20:38:25.745Z,96320.45
2018-04-08T20:40:53.715Z,96319.90
2018-04-08T20:43:21.683Z,96319.92
2018-04-08T20:45:49.573Z,96321.77
2018-04-08T20:48:17.315Z,96321.06
2018-04-08T20:50:46.457Z,96310.19
2018-04-08T20:53:14.377Z,96312.30
2018-04-08T20:55:42.245Z,96305.13
2018-04-08T20:58:10.110Z,96306.08
2018-04-08T21:00:37.978Z,96305.15
2018-04-08T21:03:06.050Z,96303.77
2018-04-08T21:05:33.801Z,96302.43
2018-04-08T21:08:01.680Z,96301.94
2018-04-08T21:10:29.655Z,96301.88
2018-04-08T21:12:57.445Z,96297.99
2018-04-08T21:15:25.937Z,96298.16
2018-04-08T21:17:53.661Z,96300.86
2018-04-08T21:23:54.210Z,96302.12
2018-04-08T21:26:22.074Z,96298.30
2018-04-08T21:28:49.739Z,96296.39
2018-04-08T21:31:17.400Z,96304.59
2018-04-08T21:33:45.030Z,96301.40
2018-04-08T21:36:12.724Z,96296.82
2018-04-08T21:38:40.592Z,96300.19
2018-04-08T21:41:08.355Z,96297.94
2018-04-08T21:43:36.221Z,96294.46
2018-04-08T21:46:03.986Z,96292.34
2018-04-08T21:48:31.749Z,96288.02
2018-04-08T21:50:59.671Z,96288.73
2018-04-08T21:53:27.537Z,96282.05
2018-04-08T21:55:55.658Z,96284.38
2018-04-08T21:58:23.296Z,96286.95
2018-04-08T22:00:50.890Z,96292.94
2018-04-08T22:03:19.153Z,96286.55
2018-04-08T22:05:49.738Z,96284.51
2018-04-08T22:08:17.341Z,96281.09
2018-04-08T22:10:45.006Z,96273.11
2018-04-08T22:13:12.613Z,96274.39
2018-04-08T22:15:40.405Z,96271.38
2018-04-08T22:18:07.924Z,96274.44
2018-04-08T22:20:35.487Z,96279.50
2018-04-08T22:23:03.042Z,96278.27
2018-04-08T22:25:30.674Z,96279.78
2018-04-08T22:27:58.296Z,96280.50
2018-04-08T22:30:28.701Z,96283.38
2018-04-08T22:32:56.222Z,96287.97
2018-04-08T22:35:23.829Z,96288.23
2018-04-08T22:37:51.441Z,96283.36
2018-04-08T22:40:19.057Z,96284.63
2018-04-08T22:42:46.743Z,96287.30
2018-04-08T22:45:14.282Z,96290.80
2018-04-08T22:47:41.843Z,96287.31
2018-04-08T22:50:09.544Z,96297.77
2018-04-08T22:52:37.151Z,96289.16
2018-04-08T22:55:04.673Z,96294.98
2018-04-08T22:57:32.325Z,96296.05
2018-04-08T22:59:59.900Z,96298.38
2018-04-08T23:02:27.529Z,96295.56
2018-04-08T23:04:55.286Z,96301.27
2018-04-08T23:07:22.834Z,96297.24
2018-04-08T23:09:50.358Z,96295.20
2018-04-08T23:12:17.918Z,96294.30
2018-04-08T23:14:45.450Z,96298.53
2018-04-08T23:17:13.277Z,96289.37
2018-04-08T23:19:40.951Z,96289.77
2018-04-08T23:22:08.644Z,96291.66
2018-04-08T23:24:37.214Z,96281.72
2018-04-08T23:27:04.818Z,96283.88
2018-04-08T23:29:32.622Z,96281.69
2018-04-08T23:32:00.148Z,96276.64
2018-04-08T23:34:27.675Z,96283.88
2018-04-08T23:36:55.239Z,96278.38
2018-04-08T23:39:22.797Z,96275.14
2018-04-08T23:41:50.458Z,96273.66
2018-04-08T23:44:18.899Z,96274.28
2018-04-08T23:46:46.430Z,96274.41
2018-04-08T23:49:14.037Z,96278.20
2018-04-08T23:51:41.581Z,96273.89
2018-04-08T23:54:09.234Z,96279.31
2018-04-08T23:56:36.770Z,96279.11
2018-04-08T23:59:04.784Z,96286.74
